Storm Events Database

Event Details

Event Thunderstorm Wind
Magnitude 52 kts.
State TEXAS
County/Area HARTLEY
WFO AMA
Report Source ASOS
NCDC Data Source CSV
Begin Date 2007-04-12 19:25:00.0 CST-6
Begin Location 3SW DALHART
Begin Lat/Lon 36.04/-102.56
End Date 2007-04-12 19:25:00.0 CST-6
Deaths Direct/Indirect 0/0 (fatality details below, when available...)
Injuries Direct/Indirect 0/0
Property Damage 0.00K
Crop Damage 0.00K
Episode Narrative Severe thunderstorms which developed across the western Texas Panhandle during the evening hours moved east across the central Texas Panhandle by late evening and the early morning hours. These severe storms produced damaging winds across an extensive area across the southern Texas Panhandle and some large hail...however no injuries were reported.
Event Narrative


     ‚Äč



All events for this episode:

Location County/Zone St. Date Time T.Z. Type Mag Dth Inj PrD CrD
Totals: 0 0 160.00K 0.00K
DALHART HARTLEY CO. TX 04/12/2007 19:25 CST-6 Thunderstorm Wind 52 kts. MG 0 0 0.00K 0.00K
VEGA OLDHAM CO. TX 04/12/2007 19:40 CST-6 Hail 1.00 in. 0 0 0.00K 0.00K
VEGA OLDHAM CO. TX 04/12/2007 19:46 CST-6 Hail 0.75 in. 0 0 0.00K 0.00K
VEGA OLDHAM CO. TX 04/12/2007 19:46 CST-6 Hail 0.75 in. 0 0 0.00K 0.00K
DUMAS MOORE CO. TX 04/12/2007 19:56 CST-6 Hail 0.88 in. 0 0 0.00K 0.00K
ADY POTTER CO. TX 04/12/2007 20:10 CST-6 Hail 0.88 in. 0 0 0.00K 0.00K
ADY POTTER CO. TX 04/12/2007 20:14 CST-6 Hail 0.88 in. 0 0 0.00K 0.00K
BUSHLAND POTTER CO. TX 04/12/2007 20:23 CST-6 Thunderstorm Wind 61 kts. EG 0 0 0.00K 0.00K
AMARILLO POTTER CO. TX 04/12/2007 20:25 CST-6 Hail 0.75 in. 0 0 0.00K 0.00K
AMARILLO POTTER CO. TX 04/12/2007 20:30 CST-6 Thunderstorm Wind 87 kts. EG 0 0 35.00K 0.00K
AMARILLO POTTER CO. TX 04/12/2007 20:30 CST-6 Thunderstorm Wind 61 kts. EG 0 0 0.00K 0.00K
AMARILLO POTTER CO. TX 04/12/2007 20:35 CST-6 Thunderstorm Wind 74 kts. EG 0 0 11.00K 0.00K
AMARILLO POTTER CO. TX 04/12/2007 20:40 CST-6 Thunderstorm Wind 55 kts. MG 0 0 0.00K 0.00K
AMARILLO POTTER CO. TX 04/12/2007 20:45 CST-6 Thunderstorm Wind 61 kts. EG 0 0 20.00K 0.00K
AMARILLO POTTER CO. TX 04/12/2007 20:45 CST-6 Thunderstorm Wind 56 kts. EG 0 0 30.00K 0.00K
AMARILLO POTTER CO. TX 04/12/2007 20:50 CST-6 Thunderstorm Wind 87 kts. EG 0 0 2.00K 0.00K
AMARILLO POTTER CO. TX 04/12/2007 20:50 CST-6 Thunderstorm Wind 56 kts. EG 0 0 0.00K 0.00K
AMARILLO POTTER CO. TX 04/12/2007 20:55 CST-6 Thunderstorm Wind 61 kts. EG 0 0 4.00K 0.00K
AMARILLO POTTER CO. TX 04/12/2007 20:55 CST-6 Thunderstorm Wind 61 kts. EG 0 0 3.00K 0.00K
AMARILLO POTTER CO. TX 04/12/2007 20:55 CST-6 Thunderstorm Wind 56 kts. EG 0 0 0.00K 0.00K
AMARILLO POTTER CO. TX 04/12/2007 20:55 CST-6 Thunderstorm Wind 56 kts. EG 0 0 7.00K 0.00K
AMARILLO POTTER CO. TX 04/12/2007 20:55 CST-6 Thunderstorm Wind 61 kts. EG 0 0 3.00K 0.00K
AMARILLO POTTER CO. TX 04/12/2007 20:55 CST-6 Thunderstorm Wind 56 kts. EG 0 0 0.00K 0.00K
AMARILLO POTTER CO. TX 04/12/2007 20:56 CST-6 Thunderstorm Wind 52 kts. EG 0 0 0.00K 0.00K
PANHANDLE CARSON CO. TX 04/12/2007 20:56 CST-6 Thunderstorm Wind 52 kts. EG 0 0 0.00K 0.00K
PANHANDLE CARSON CO. TX 04/12/2007 20:59 CST-6 Thunderstorm Wind 61 kts. EG 0 0 0.00K 0.00K
PANHANDLE CARSON CO. TX 04/12/2007 21:03 CST-6 Thunderstorm Wind 52 kts. EG 0 0 0.00K 0.00K
PANHANDLE CARSON CO. TX 04/12/2007 21:10 CST-6 Thunderstorm Wind 61 kts. EG 0 0 0.00K 0.00K
FRITCH HUTCHINSON CO. TX 04/12/2007 21:11 CST-6 Hail 0.88 in. 0 0 0.00K 0.00K
PANHANDLE CARSON CO. TX 04/12/2007 21:24 CST-6 Thunderstorm Wind 61 kts. EG 0 0 34.00K 0.00K
CLAUDE ARMSTRONG CO. TX 04/12/2007 21:40 CST-6 Thunderstorm Wind 61 kts. EG 0 0 11.00K 0.00K
AMARILLO POTTER CO. TX 04/12/2007 22:05 CST-6 Hail 0.75 in. 0 0 0.00K 0.00K
AMARILLO POTTER CO. TX 04/12/2007 22:23 CST-6 Hail 0.75 in. 0 0 0.00K 0.00K
AMARILLO POTTER CO. TX 04/12/2007 22:27 CST-6 Hail 0.75 in. 0 0 0.00K 0.00K
BORGER HUTCHINSON CO. TX 04/13/2007 02:22 CST-6 Hail 0.88 in. 0 0 0.00K 0.00K
PANHANDLE CARSON CO. TX 04/13/2007 02:24 CST-6 Hail 0.88 in. 0 0 0.00K 0.00K
Totals: 0 0 160.00K 0.00K